createdAt,value
2019-05-16T00:00:58.771Z,100631.20
2019-05-16T00:03:27.942Z,100626.89
2019-05-16T00:05:58.227Z,100622.78
2019-05-16T00:08:24.735Z,100619.47
2019-05-16T00:10:54.915Z,100609.40
2019-05-16T00:13:21.946Z,100612.82
2019-05-16T00:15:49.058Z,100605.59
2019-05-16T00:18:17.860Z,100602.75
2019-05-16T00:20:49.264Z,100606.44
2019-05-16T00:23:18.236Z,100613.52
2019-05-16T00:25:47.877Z,100602.69
2019-05-16T00:28:18.002Z,100600.31
2019-05-16T00:30:45.415Z,100597.50
2019-05-16T00:33:12.479Z,100591.31
2019-05-16T00:35:39.552Z,100584.83
2019-05-16T00:38:08.623Z,100581.27
2019-05-16T00:40:38.042Z,100581.97
2019-05-16T00:43:04.734Z,100580.77
2019-05-16T00:45:31.999Z,100573.48
2019-05-16T00:47:59.277Z,100570.64
2019-05-16T00:50:28.807Z,100568.81
2019-05-16T00:52:59.256Z,100568.69
2019-05-16T00:55:28.406Z,100559.27
2019-05-16T00:57:58.408Z,100559.73
2019-05-16T01:00:45.968Z,100560.39
2019-05-16T01:03:13.174Z,100557.66
2019-05-16T01:05:40.374Z,100560.41
2019-05-16T01:08:07.939Z,100556.91
2019-05-16T01:10:35.423Z,100558.22
2019-05-16T01:13:02.619Z,100555.06
2019-05-16T01:15:31.020Z,100554.35
2019-05-16T01:17:58.869Z,100547.12
2019-05-16T01:20:27.960Z,100550.09
2019-05-16T01:22:58.154Z,100554.53
2019-05-16T01:25:28.224Z,100551.75
2019-05-16T01:27:55.441Z,100549.32
2019-05-16T01:30:22.461Z,100548.64
2019-05-16T01:32:49.520Z,100543.54
2019-05-16T01:35:18.822Z,100538.07
2019-05-16T01:37:45.879Z,100541.41
2019-05-16T01:40:13.817Z,100537.47
2019-05-16T01:42:40.941Z,100538.75
2019-05-16T01:45:09.146Z,100538.66
2019-05-16T01:47:36.436Z,100528.77
2019-05-16T01:50:04.067Z,100529.69
2019-05-16T01:52:32.593Z,100529.77
2019-05-16T01:54:59.674Z,100525.64
2019-05-16T01:57:28.227Z,100521.66
2019-05-16T01:59:55.572Z,100519.03
2019-05-16T02:02:22.650Z,100519.03
2019-05-16T02:04:49.699Z,100518.01
2019-05-16T02:07:18.767Z,100518.57
2019-05-16T02:09:47.698Z,100519.77
2019-05-16T02:12:18.489Z,100517.92
2019-05-16T02:14:45.520Z,100514.77
2019-05-16T02:17:13.961Z,100516.17
2019-05-16T02:19:40.983Z,100518.12
2019-05-16T02:22:09.177Z,100511.73
2019-05-16T02:24:38.398Z,100514.84
2019-05-16T02:27:05.719Z,100515.17
2019-05-16T02:29:32.766Z,100511.97
2019-05-16T02:32:02.051Z,100517.66
2019-05-16T02:34:30.759Z,100519.61
2019-05-16T02:37:18.027Z,100516.74
2019-05-16T02:39:26.739Z,100513.93
2019-05-16T02:41:54.196Z,100512.58
2019-05-16T02:44:24.599Z,100506.42
2019-05-16T02:46:50.925Z,100509.30
2019-05-16T02:49:21.414Z,100503.89
2019-05-16T02:51:47.236Z,100499.45
2019-05-16T02:54:15.547Z,100503.61
2019-05-16T02:56:42.571Z,100500.41
2019-05-16T02:59:11.903Z,100500.91
2019-05-16T03:01:40.939Z,100495.67
2019-05-16T03:04:10.785Z,100488.39
2019-05-16T03:06:40.854Z,100487.44
2019-05-16T03:09:07.102Z,100483.59
2019-05-16T03:11:34.602Z,100482.47
2019-05-16T03:14:03.476Z,100475.58
2019-05-16T03:16:31.910Z,100475.66
2019-05-16T03:19:01.767Z,100470.58
2019-05-16T03:21:56.170Z,100463.16
2019-05-16T03:25:16.054Z,100459.59
2019-05-16T03:27:51.242Z,100456.28
2019-05-16T03:30:23.344Z,100460.23
2019-05-16T03:32:47.088Z,100460.61
2019-05-16T03:35:16.881Z,100464.12
2019-05-16T03:37:55.020Z,100454.55
2019-05-16T03:40:14.966Z,100456.78
2019-05-16T03:42:42.166Z,100455.93
2019-05-16T03:45:10.773Z,100451.26
2019-05-16T03:47:42.256Z,100457.73
2019-05-16T03:50:10.853Z,100448.41
2019-05-16T03:52:40.217Z,100440.97
2019-05-16T03:55:05.938Z,100444.53
2019-05-16T03:57:33.042Z,100442.16
2019-05-16T04:00:00.847Z,100450.93
2019-05-16T04:02:31.039Z,100444.95
2019-05-16T04:05:02.432Z,100446.67
2019-05-16T04:07:31.993Z,100444.55
2019-05-16T04:10:02.157Z,100443.26
2019-05-16T04:12:30.871Z,100442.58
2019-05-16T04:14:57.587Z,100441.34
2019-05-16T04:17:25.946Z,100437.70
2019-05-16T04:19:52.999Z,100436.95
2019-05-16T04:22:21.524Z,100444.70
2019-05-16T04:24:51.265Z,100435.69
2019-05-16T04:27:21.204Z,100438.88
2019-05-16T04:29:46.884Z,100438.98
2019-05-16T04:32:14.311Z,100435.91
2019-05-16T04:34:43.607Z,100434.13
2019-05-16T04:37:11.851Z,100433.80
2019-05-16T04:39:41.454Z,100432.89
2019-05-16T04:42:10.817Z,100433.98
2019-05-16T04:44:37.056Z,100432.85
2019-05-16T04:47:11.022Z,100433.80
2019-05-16T04:49:41.196Z,100434.70
2019-05-16T04:52:11.326Z,100439.20
2019-05-16T04:54:42.765Z,100439.59
2019-05-16T04:57:13.345Z,100439.88
2019-05-16T04:59:46.554Z,100435.59
2019-05-16T05:02:21.196Z,100434.61
2019-05-16T05:04:50.716Z,100427.36
2019-05-16T05:07:16.638Z,100431.06
2019-05-16T05:09:51.341Z,100429.95
2019-05-16T05:12:20.810Z,100434.30
2019-05-16T05:14:47.492Z,100425.68
2019-05-16T05:17:15.574Z,100428.18
2019-05-16T05:19:42.697Z,100429.22
2019-05-16T05:22:11.509Z,100425.94
2019-05-16T05:24:40.598Z,100428.13
2019-05-16T05:27:07.572Z,100428.30
2019-05-16T05:29:35.731Z,100428.69
2019-05-16T05:32:04.922Z,100426.72
2019-05-16T05:34:34.035Z,100425.41
2019-05-16T05:37:01.147Z,100424.77
2019-05-16T05:39:30.291Z,100420.34
2019-05-16T05:41:59.915Z,100421.81
2019-05-16T05:44:26.393Z,100416.13
2019-05-16T05:46:53.675Z,100427.45
2019-05-16T05:49:20.718Z,100420.69
2019-05-16T05:52:06.581Z,100421.94
2019-05-16T05:54:36.616Z,100420.97
2019-05-16T05:57:03.700Z,100416.28
2019-05-16T05:59:30.834Z,100415.81
2019-05-16T06:02:00.577Z,100417.33
2019-05-16T06:04:26.847Z,100417.58
2019-05-16T06:06:53.909Z,100413.89
2019-05-16T06:09:28.438Z,100415.11
2019-05-16T06:11:50.284Z,100413.27
2019-05-16T06:14:17.567Z,100411.92
2019-05-16T06:16:46.857Z,100422.03
2019-05-16T06:19:13.952Z,100415.57
2019-05-16T06:21:44.949Z,100415.95
2019-05-16T06:24:10.786Z,100412.63
2019-05-16T06:26:39.796Z,100412.42
2019-05-16T06:29:06.914Z,100407.94
2019-05-16T06:31:34.157Z,100403.51
2019-05-16T06:34:07.831Z,100405.03
2019-05-16T06:36:30.618Z,100398.44
2019-05-16T06:39:00.457Z,100409.09
2019-05-16T06:41:30.440Z,100406.09
2019-05-16T06:43:59.946Z,100411.08
2019-05-16T06:46:30.645Z,100420.03
2019-05-16T06:48:59.634Z,100412.55
2019-05-16T06:51:26.916Z,100405.06
2019-05-16T06:53:54.466Z,100401.64
2019-05-16T06:56:23.584Z,100397.78
2019-05-16T06:59:01.923Z,100394.34
2019-05-16T07:01:29.829Z,100396.45
2019-05-16T07:03:57.032Z,100388.19
2019-05-16T07:06:47.375Z,100391.70
2019-05-16T07:08:53.514Z,100382.86
2019-05-16T07:11:20.541Z,100385.70
2019-05-16T07:13:51.686Z,100377.26
2019-05-16T07:16:16.672Z,100370.46
2019-05-16T07:18:44.830Z,100366.86
2019-05-16T07:21:11.878Z,100372.99
2019-05-16T07:23:40.447Z,100373.68
2019-05-16T07:26:09.966Z,100362.50
2019-05-16T07:28:40.630Z,100360.13
2019-05-16T07:31:15.661Z,100363.02
2019-05-16T07:33:40.676Z,100361.22
2019-05-16T07:36:09.976Z,100360.59
2019-05-16T07:38:40.055Z,100355.72
2019-05-16T07:41:07.187Z,100350.39
2019-05-16T07:43:36.180Z,100347.46
2019-05-16T07:46:03.250Z,100349.49
2019-05-16T07:48:31.782Z,100339.73
2019-05-16T07:51:00.752Z,100342.09
2019-05-16T07:53:32.830Z,100342.06
2019-05-16T07:55:56.758Z,100348.61
2019-05-16T07:58:23.920Z,100341.68
2019-05-16T08:01:02.224Z,100337.38
2019-05-16T08:03:20.123Z,100337.12
2019-05-16T08:05:50.841Z,100341.38
2019-05-16T08:08:16.321Z,100341.16
2019-05-16T08:13:13.079Z,100332.81
2019-05-16T08:15:41.659Z,100325.70
2019-05-16T08:18:11.092Z,100320.52
2019-05-16T08:20:37.728Z,100310.14
2019-05-16T08:23:04.764Z,100313.21
2019-05-16T08:25:34.350Z,100310.38
2019-05-16T08:28:02.550Z,100310.89
2019-05-16T08:30:36.438Z,100310.81
2019-05-16T08:33:05.400Z,100307.91
2019-05-16T08:35:32.669Z,100303.22
2019-05-16T08:38:01.050Z,100297.58
2019-05-16T08:40:31.305Z,100297.31
2019-05-16T08:43:00.309Z,100294.80
2019-05-16T08:45:26.826Z,100286.14
2019-05-16T08:47:54.985Z,100283.92
2019-05-16T08:50:05.093Z,100332.84
2019-05-16T08:50:23.354Z,100279.59
2019-05-16T08:52:52.937Z,100283.70
2019-05-16T08:55:21.745Z,100276.30
2019-05-16T08:57:53.028Z,100274.69
2019-05-16T09:00:21.463Z,100273.44
2019-05-16T09:02:47.142Z,100262.31
2019-05-16T09:05:14.313Z,100262.75
2019-05-16T09:07:45.986Z,100261.11
2019-05-16T09:10:45.679Z,100251.64
2019-05-16T09:12:47.724Z,100253.13
2019-05-16T09:15:16.911Z,100254.48
2019-05-16T09:17:43.317Z,100249.88
2019-05-16T09:20:11.093Z,100243.64
2019-05-16T09:22:38.111Z,100243.78
2019-05-16T09:25:08.018Z,100247.19
2019-05-16T09:27:34.555Z,100246.75
2019-05-16T09:30:01.676Z,100244.05
2019-05-16T09:32:28.723Z,100244.62
2019-05-16T09:34:57.313Z,100240.60
2019-05-16T09:37:26.743Z,100236.09
2019-05-16T09:39:59.565Z,100229.03
2019-05-16T09:42:27.666Z,100234.52
2019-05-16T09:44:57.644Z,100223.13
2019-05-16T09:47:24.286Z,100220.63
2019-05-16T09:49:51.381Z,100213.87
2019-05-16T09:52:18.443Z,100212.29
2019-05-16T09:54:46.885Z,100211.05
2019-05-16T09:57:14.287Z,100199.53
2019-05-16T09:59:41.572Z,100197.05
2019-05-16T10:02:08.987Z,100198.23
2019-05-16T10:04:36.798Z,100205.61
2019-05-16T10:07:06.517Z,100198.58
2019-05-16T10:09:44.095Z,100193.91
2019-05-16T10:12:11.326Z,100198.34
2019-05-16T10:14:32.244Z,100203.39
2019-05-16T10:16:59.342Z,100188.50
2019-05-16T10:19:27.537Z,100185.33
2019-05-16T10:22:00.013Z,100179.42
2019-05-16T10:24:26.706Z,100174.02
2019-05-16T10:26:54.072Z,100164.38
2019-05-16T10:29:22.488Z,100160.78
2019-05-16T10:32:18.434Z,100146.14
2019-05-16T10:34:46.682Z,100144.53
2019-05-16T10:37:14.269Z,100150.70
2019-05-16T10:39:41.326Z,100145.78
2019-05-16T10:42:23.596Z,100142.55
2019-05-16T10:44:38.956Z,100139.81
2019-05-16T10:47:07.547Z,100138.80
2019-05-16T10:49:38.769Z,100133.03
2019-05-16T10:52:03.790Z,100131.00
2019-05-16T10:54:30.971Z,100131.29
2019-05-16T10:56:58.522Z,100123.72
2019-05-16T10:59:56.606Z,100121.78
2019-05-16T11:01:56.362Z,100119.84
2019-05-16T11:04:31.766Z,100114.86
2019-05-16T11:06:53.400Z,100122.98
2019-05-16T11:09:22.290Z,100118.91
2019-05-16T11:11:49.337Z,100133.46
2019-05-16T11:14:17.308Z,100127.17
2019-05-16T11:16:47.186Z,100127.73
2019-05-16T11:19:20.317Z,100124.04
2019-05-16T11:21:43.106Z,100125.64
2019-05-16T11:24:13.475Z,100125.78
2019-05-16T11:26:40.642Z,100123.54
2019-05-16T11:29:11.126Z,100123.97
2019-05-16T11:31:38.262Z,100120.42
2019-05-16T11:34:05.460Z,100117.54
2019-05-16T11:36:32.624Z,100131.77
2019-05-16T11:39:01.909Z,100114.87
2019-05-16T11:41:30.544Z,100113.34
2019-05-16T11:44:00.311Z,100116.97
2019-05-16T11:46:29.478Z,100103.81
2019-05-16T11:49:08.309Z,100095.95
2019-05-16T11:51:38.194Z,100097.67
2019-05-16T11:54:13.150Z,100094.60
2019-05-16T11:56:42.969Z,100092.56
2019-05-16T11:59:31.834Z,100095.02
2019-05-16T12:02:33.367Z,100098.02
2019-05-16T12:05:04.151Z,100090.34
2019-05-16T12:07:35.616Z,100080.70
2019-05-16T12:10:07.359Z,100089.42
2019-05-16T12:12:33.448Z,100085.53
2019-05-16T12:15:01.081Z,100080.52
2019-05-16T12:17:36.350Z,100078.39
2019-05-16T12:20:13.100Z,100073.33
2019-05-16T12:22:48.269Z,100063.41
2019-05-16T12:25:22.239Z,100062.23
2019-05-16T12:27:50.201Z,100066.61
2019-05-16T12:30:18.986Z,100050.59
2019-05-16T12:32:47.464Z,100041.47
2019-05-16T12:35:17.370Z,100044.06
2019-05-16T12:37:47.937Z,100044.66
2019-05-16T12:40:16.323Z,100033.37
2019-05-16T12:42:55.039Z,100031.74
2019-05-16T12:45:27.584Z,100032.20
2019-05-16T12:47:54.417Z,100033.34
2019-05-16T12:50:21.635Z,100020.66
2019-05-16T12:52:50.543Z,100007.80
2019-05-16T12:55:17.822Z,100008.95
2019-05-16T12:57:48.963Z,100014.27
2019-05-16T13:00:19.036Z,100012.95
2019-05-16T13:02:47.335Z,100002.48
2019-05-16T13:05:50.665Z,100000.17
2019-05-16T13:08:17.725Z,99992.53
2019-05-16T13:10:48.545Z,99990.98
2019-05-16T13:13:17.675Z,99979.33
2019-05-16T13:15:47.288Z,99981.52
2019-05-16T13:18:14.056Z,99982.62
2019-05-16T13:20:41.518Z,99977.00
2019-05-16T13:23:14.439Z,99979.47
2019-05-16T13:25:39.751Z,99970.97
2019-05-16T13:28:08.222Z,99963.91
2019-05-16T13:30:37.682Z,99965.68
2019-05-16T13:33:07.277Z,99958.05
2019-05-16T13:35:37.035Z,99968.24
2019-05-16T13:38:03.852Z,99966.42
2019-05-16T13:40:32.294Z,99963.84
2019-05-16T13:42:59.411Z,99963.91
2019-05-16T13:45:29.321Z,99954.87
2019-05-16T13:47:57.282Z,99952.56
2019-05-16T13:50:27.104Z,99960.03
2019-05-16T13:52:54.690Z,99949.88
2019-05-16T13:55:23.251Z,99943.14
2019-05-16T13:57:50.599Z,99943.62
2019-05-16T14:00:18.375Z,99936.21
2019-05-16T14:02:47.609Z,99930.60
2019-05-16T14:05:20.072Z,99928.11
2019-05-16T14:07:48.261Z,99934.83
2019-05-16T14:10:18.391Z,99929.11
2019-05-16T14:12:49.729Z,99907.69
2019-05-16T14:15:19.918Z,99915.27
2019-05-16T14:17:49.011Z,99935.16
2019-05-16T14:20:18.319Z,99936.12
2019-05-16T14:22:57.309Z,99932.31
2019-05-16T14:25:26.528Z,99934.96
2019-05-16T14:27:53.615Z,99942.34
2019-05-16T14:30:22.355Z,99933.17
2019-05-16T14:32:50.933Z,99935.34
2019-05-16T14:35:18.132Z,99940.11
2019-05-16T14:37:46.861Z,99942.83
2019-05-16T14:40:17.804Z,99936.56
2019-05-16T14:42:47.965Z,99937.05
2019-05-16T14:45:19.683Z,99933.02
2019-05-16T14:47:53.867Z,99951.05
2019-05-16T14:50:21.421Z,99944.95
2019-05-16T14:52:48.541Z,99941.42
2019-05-16T14:55:18.540Z,99943.61
2019-05-16T14:57:51.533Z,99937.28
2019-05-16T15:00:52.133Z,99938.34
2019-05-16T15:03:19.224Z,99938.77
2019-05-16T15:05:48.018Z,99931.67
2019-05-16T15:08:47.446Z,99935.52
2019-05-16T15:11:17.670Z,99936.67
2019-05-16T15:13:43.747Z,99940.84
2019-05-16T15:16:17.003Z,99938.99
2019-05-16T15:18:47.521Z,99929.55
2019-05-16T15:21:17.385Z,99930.16
2019-05-16T15:23:45.290Z,99924.95
2019-05-16T15:26:12.522Z,99926.13
2019-05-16T15:28:39.935Z,99922.79
2019-05-16T15:31:07.187Z,99912.09
2019-05-16T15:33:36.700Z,99921.77
2019-05-16T15:36:08.585Z,99919.44
2019-05-16T15:38:39.617Z,99919.84
2019-05-16T15:41:36.543Z,99919.16
2019-05-16T15:44:38.615Z,99902.59
2019-05-16T15:47:09.229Z,99918.92
2019-05-16T15:50:07.951Z,99918.78
2019-05-16T15:53:07.757Z,99926.39
2019-05-16T15:55:47.057Z,99925.71
2019-05-16T15:58:18.769Z,99920.13
2019-05-16T16:00:48.845Z,99905.90
2019-05-16T16:03:19.989Z,99918.12
2019-05-16T16:06:07.402Z,99913.52
2019-05-16T16:08:47.066Z,99912.55
2019-05-16T16:11:23.787Z,99907.78
2019-05-16T16:13:53.356Z,99899.75
2019-05-16T16:16:24.083Z,99907.80
2019-05-16T16:18:51.606Z,99906.14
2019-05-16T16:21:21.834Z,99907.34
2019-05-16T16:23:50.891Z,99903.62
2019-05-16T16:26:18.052Z,99908.36
2019-05-16T16:28:45.190Z,99910.46
2019-05-16T16:31:12.432Z,99904.08
2019-05-16T16:33:39.592Z,99893.72
2019-05-16T16:36:07.774Z,99904.65
2019-05-16T16:38:39.305Z,99909.55
2019-05-16T16:41:39.865Z,99909.87
2019-05-16T16:44:23.098Z,99915.16
2019-05-16T16:46:50.210Z,99916.53
2019-05-16T16:49:20.113Z,99906.59
2019-05-16T16:51:48.279Z,99919.52
2019-05-16T16:54:17.785Z,99915.69
2019-05-16T16:56:55.566Z,99913.38
2019-05-16T16:59:28.242Z,99917.28
2019-05-16T17:01:57.184Z,99919.11
2019-05-16T17:04:26.553Z,99914.91
2019-05-16T17:06:53.560Z,99910.01
2019-05-16T17:09:26.849Z,99911.63
2019-05-16T17:12:06.598Z,99915.66
2019-05-16T17:17:38.371Z,99924.77
2019-05-16T17:20:09.248Z,99924.31
2019-05-16T17:22:46.690Z,99918.41
2019-05-16T17:25:15.183Z,99915.98
2019-05-16T17:27:43.116Z,99912.36
2019-05-16T17:30:16.956Z,99913.84
2019-05-16T17:32:44.827Z,99908.55
2019-05-16T17:35:18.520Z,99898.07
2019-05-16T17:37:46.699Z,99900.58
2019-05-16T17:40:17.652Z,99907.33
2019-05-16T17:42:44.627Z,99903.80
2019-05-16T17:45:18.040Z,99901.94
2019-05-16T17:48:12.792Z,99900.53
2019-05-16T17:51:17.521Z,99902.67
2019-05-16T17:53:53.452Z,99908.43
2019-05-16T17:56:41.661Z,99903.70
2019-05-16T17:59:17.122Z,99902.94
2019-05-16T18:01:46.322Z,99905.80
2019-05-16T18:04:13.731Z,99905.90
2019-05-16T18:06:47.235Z,99900.43
2019-05-16T18:09:17.172Z,99903.31
2019-05-16T18:11:47.178Z,99901.92
2019-05-16T18:14:19.845Z,99903.43
2019-05-16T18:16:58.549Z,99906.84
2019-05-16T18:19:26.417Z,99899.81
2019-05-16T18:21:53.697Z,99897.23
2019-05-16T18:24:23.163Z,99900.47
2019-05-16T18:26:53.414Z,99894.87
2019-05-16T18:29:21.821Z,99900.06
2019-05-16T18:38:28.212Z,99884.87
2019-05-16T18:40:56.596Z,99877.81
2019-05-16T18:43:36.465Z,99885.52
2019-05-16T18:46:07.426Z,99882.30
2019-05-16T18:48:36.773Z,99881.93
2019-05-16T18:51:06.460Z,99878.50
2019-05-16T18:53:39.021Z,99878.23
2019-05-16T18:56:08.926Z,99882.92
2019-05-16T18:58:39.925Z,99885.98
2019-05-16T19:01:18.308Z,99861.95
2019-05-16T19:03:49.041Z,99886.95
2019-05-16T19:06:16.983Z,99878.11
2019-05-16T19:08:51.342Z,99875.44
2019-05-16T19:11:24.278Z,99871.34
2019-05-16T19:13:51.689Z,99872.00
2019-05-16T19:16:21.612Z,99863.70
2019-05-16T19:18:48.826Z,99866.35
2019-05-16T19:21:21.673Z,99873.30
2019-05-16T19:23:48.822Z,99863.13
2019-05-16T19:26:18.728Z,99864.43
2019-05-16T19:28:46.734Z,99862.73
2019-05-16T19:31:16.997Z,99861.91
2019-05-16T19:33:48.583Z,99863.59
2019-05-16T19:36:19.167Z,99866.38
2019-05-16T19:39:07.562Z,99873.16
2019-05-16T19:41:38.798Z,99876.34
2019-05-16T19:44:10.148Z,99876.86
2019-05-16T19:46:46.702Z,99878.94
2019-05-16T19:49:15.663Z,99877.27
2019-05-16T19:51:46.078Z,99871.62
2019-05-16T19:54:17.543Z,99880.77
2019-05-16T19:56:46.794Z,99881.78
2019-05-16T19:59:14.199Z,99881.39
2019-05-16T20:01:41.385Z,99882.14
2019-05-16T20:04:08.882Z,99882.23
2019-05-16T20:06:40.162Z,99877.04
2019-05-16T20:09:16.631Z,99882.83
2019-05-16T20:12:04.370Z,99878.40
2019-05-16T20:14:33.869Z,99876.08
2019-05-16T20:17:07.417Z,99872.50
2019-05-16T20:19:36.409Z,99869.02
2019-05-16T20:22:04.167Z,99874.78
2019-05-16T20:24:31.830Z,99873.94
2019-05-16T20:26:59.237Z,99867.70
2019-05-16T20:29:29.436Z,99865.20
2019-05-16T20:32:07.901Z,99863.53
2019-05-16T20:34:41.417Z,99861.20
2019-05-16T20:37:09.328Z,99857.37
2019-05-16T20:39:37.187Z,99851.22
2019-05-16T20:42:07.604Z,99848.86
2019-05-16T20:44:37.285Z,99849.17
2019-05-16T20:47:10.055Z,99850.38
2019-05-16T20:49:38.283Z,99853.55
2019-05-16T20:52:07.095Z,99854.06
2019-05-16T20:54:37.635Z,99854.13
2019-05-16T20:57:06.772Z,99843.09
2019-05-16T20:59:33.840Z,99843.33
2019-05-16T21:02:01.375Z,99842.17
2019-05-16T21:04:30.716Z,99842.49
2019-05-16T21:07:09.957Z,99841.17
2019-05-16T21:09:33.187Z,99842.45
2019-05-16T21:12:02.176Z,99839.36
2019-05-16T21:14:29.783Z,99830.44
2019-05-16T21:16:57.724Z,99841.64
2019-05-16T21:19:25.115Z,99836.28
2019-05-16T21:21:53.334Z,99833.75
2019-05-16T21:24:22.174Z,99836.78
2019-05-16T21:26:51.960Z,99826.87
2019-05-16T21:29:19.575Z,99835.63
2019-05-16T21:31:47.340Z,99834.14
2019-05-16T21:34:16.067Z,99822.58
2019-05-16T21:36:46.988Z,99826.42
2019-05-16T21:39:17.470Z,99825.61
2019-05-16T21:41:47.271Z,99829.48
2019-05-16T21:44:18.368Z,99819.39
2019-05-16T21:46:46.984Z,99821.10
2019-05-16T21:49:19.318Z,99820.45
2019-05-16T21:51:48.238Z,99818.52
2019-05-16T21:54:15.409Z,99814.20
2019-05-16T21:56:43.627Z,99822.59
2019-05-16T21:59:12.516Z,99820.91
2019-05-16T22:01:40.739Z,99819.40
2019-05-16T22:04:07.962Z,99818.09
2019-05-16T22:06:36.699Z,99813.97
2019-05-16T22:09:06.749Z,99812.65
2019-05-16T22:11:37.467Z,99810.61
2019-05-16T22:14:06.466Z,99801.30
2019-05-16T22:16:37.120Z,99797.90
2019-05-16T22:19:06.938Z,99797.64
2019-05-16T22:21:35.309Z,99795.98
2019-05-16T22:24:06.405Z,99791.58
2019-05-16T22:26:37.768Z,99788.34
2019-05-16T22:29:06.936Z,99789.35
2019-05-16T22:31:36.689Z,99787.45
2019-05-16T22:34:03.718Z,99779.81
2019-05-16T22:36:32.841Z,99780.30
2019-05-16T22:38:59.942Z,99782.35
2019-05-16T22:41:26.996Z,99781.89
2019-05-16T22:43:54.088Z,99779.59
2019-05-16T22:46:21.582Z,99769.80
2019-05-16T22:48:50.964Z,99769.20
2019-05-16T22:51:18.116Z,99757.80
2019-05-16T22:53:45.150Z,99762.11
2019-05-16T22:56:12.232Z,99755.92
2019-05-16T22:58:39.377Z,99747.80
2019-05-16T23:01:07.017Z,99743.66
2019-05-16T23:03:35.158Z,99740.87
2019-05-16T23:06:03.852Z,99732.06
2019-05-16T23:08:30.941Z,99731.13
2019-05-16T23:10:58.045Z,99728.97
2019-05-16T23:13:26.721Z,99722.19
2019-05-16T23:15:54.070Z,99717.86
2019-05-16T23:18:21.165Z,99719.63
2019-05-16T23:20:48.276Z,99715.31
2019-05-16T23:23:17.398Z,99717.26
2019-05-16T23:25:46.185Z,99716.19
2019-05-16T23:28:17.291Z,99717.98
2019-05-16T23:30:44.339Z,99711.78
2019-05-16T23:33:11.387Z,99710.13
2019-05-16T23:35:38.470Z,99702.73
2019-05-16T23:38:16.453Z,99696.67
2019-05-16T23:40:34.573Z,99702.78
2019-05-16T23:43:02.267Z,99698.92
2019-05-16T23:45:29.288Z,99703.69
2019-05-16T23:47:57.938Z,99700.34
2019-05-16T23:50:27.574Z,99696.16
2019-05-16T23:52:56.300Z,99689.18
2019-05-16T23:55:27.629Z,99691.27
2019-05-16T23:57:53.827Z,99685.63
